sensor_id;sensor_type;location;lat;lon;timestamp;P1;durP1;ratioP1;P2;durP2;ratioP2
3801;SDS011;1916;51.798;12.246;2023-05-07T00:00:23;21.20;;;16.20;;
3801;SDS011;1916;51.798;12.246;2023-05-07T00:02:25;24.00;;;16.30;;
3801;SDS011;1916;51.798;12.246;2023-05-07T00:04:28;19.60;;;15.20;;
3801;SDS011;1916;51.798;12.246;2023-05-07T00:06:31;18.37;;;14.30;;
3801;SDS011;1916;51.798;12.246;2023-05-07T00:08:33;23.10;;;15.20;;
3801;SDS011;1916;51.798;12.246;2023-05-07T00:10:38;22.07;;;14.10;;
3801;SDS011;1916;51.798;12.246;2023-05-07T00:12:40;19.40;;;13.10;;
3801;SDS011;1916;51.798;12.246;2023-05-07T00:14:42;15.27;;;12.00;;
3801;SDS011;1916;51.798;12.246;2023-05-07T00:16:44;18.13;;;13.40;;
3801;SDS011;1916;51.798;12.246;2023-05-07T00:18:46;17.93;;;11.97;;
3801;SDS011;1916;51.798;12.246;2023-05-07T00:20:48;14.83;;;11.67;;
3801;SDS011;1916;51.798;12.246;2023-05-07T00:22:50;17.77;;;12.20;;
3801;SDS011;1916;51.798;12.246;2023-05-07T00:24:52;15.83;;;13.10;;
3801;SDS011;1916;51.798;12.246;2023-05-07T00:26:54;17.80;;;13.20;;
3801;SDS011;1916;51.798;12.246;2023-05-07T00:28:57;16.60;;;13.07;;
3801;SDS011;1916;51.798;12.246;2023-05-07T00:30:59;16.80;;;12.30;;
3801;SDS011;1916;51.798;12.246;2023-05-07T00:33:01;14.43;;;10.93;;
3801;SDS011;1916;51.798;12.246;2023-05-07T00:35:04;16.80;;;12.30;;
3801;SDS011;1916;51.798;12.246;2023-05-07T00:37:06;15.13;;;12.43;;
3801;SDS011;1916;51.798;12.246;2023-05-07T00:39:09;18.60;;;11.70;;
3801;SDS011;1916;51.798;12.246;2023-05-07T00:41:11;13.40;;;11.97;;
3801;SDS011;1916;51.798;12.246;2023-05-07T00:43:13;14.60;;;11.00;;
3801;SDS011;1916;51.798;12.246;2023-05-07T00:45:15;12.00;;;10.27;;
3801;SDS011;1916;51.798;12.246;2023-05-07T00:47:18;15.60;;;12.27;;
3801;SDS011;1916;51.798;12.246;2023-05-07T00:49:20;15.53;;;9.93;;
3801;SDS011;1916;51.798;12.246;2023-05-07T00:51:23;13.87;;;11.00;;
3801;SDS011;1916;51.798;12.246;2023-05-07T00:53:29;13.60;;;10.67;;
3801;SDS011;1916;51.798;12.246;2023-05-07T00:55:32;11.90;;;9.80;;
3801;SDS011;1916;51.798;12.246;2023-05-07T00:57:36;13.23;;;10.13;;
3801;SDS011;1916;51.798;12.246;2023-05-07T00:59:39;10.53;;;9.43;;
3801;SDS011;1916;51.798;12.246;2023-05-07T01:01:42;11.43;;;10.23;;
3801;SDS011;1916;51.798;12.246;2023-05-07T01:03:44;16.10;;;10.70;;
3801;SDS011;1916;51.798;12.246;2023-05-07T01:05:47;11.53;;;10.30;;
3801;SDS011;1916;51.798;12.246;2023-05-07T01:07:50;13.37;;;10.77;;
3801;SDS011;1916;51.798;12.246;2023-05-07T01:09:55;13.90;;;10.33;;
3801;SDS011;1916;51.798;12.246;2023-05-07T01:11:58;14.43;;;10.70;;
3801;SDS011;1916;51.798;12.246;2023-05-07T01:14:01;12.47;;;10.27;;
3801;SDS011;1916;51.798;12.246;2023-05-07T01:16:03;11.63;;;10.43;;
3801;SDS011;1916;51.798;12.246;2023-05-07T01:18:06;16.47;;;12.10;;
3801;SDS011;1916;51.798;12.246;2023-05-07T01:20:10;15.03;;;11.70;;
3801;SDS011;1916;51.798;12.246;2023-05-07T01:22:13;15.50;;;12.63;;
3801;SDS011;1916;51.798;12.246;2023-05-07T01:24:23;13.43;;;11.20;;
3801;SDS011;1916;51.798;12.246;2023-05-07T01:26:25;14.33;;;12.43;;
3801;SDS011;1916;51.798;12.246;2023-05-07T01:28:27;16.37;;;11.97;;
3801;SDS011;1916;51.798;12.246;2023-05-07T01:30:32;15.03;;;11.93;;
3801;SDS011;1916;51.798;12.246;2023-05-07T01:34:43;15.07;;;12.90;;
3801;SDS011;1916;51.798;12.246;2023-05-07T01:36:47;16.33;;;14.07;;
3801;SDS011;1916;51.798;12.246;2023-05-07T01:38:50;18.43;;;13.90;;
3801;SDS011;1916;51.798;12.246;2023-05-07T01:40:53;20.63;;;13.90;;
3801;SDS011;1916;51.798;12.246;2023-05-07T01:42:57;19.13;;;13.40;;
3801;SDS011;1916;51.798;12.246;2023-05-07T01:44:59;17.30;;;13.63;;
3801;SDS011;1916;51.798;12.246;2023-05-07T01:47:01;17.67;;;13.40;;
3801;SDS011;1916;51.798;12.246;2023-05-07T01:49:04;16.30;;;13.03;;
3801;SDS011;1916;51.798;12.246;2023-05-07T01:51:06;24.00;;;15.00;;
3801;SDS011;1916;51.798;12.246;2023-05-07T01:53:09;17.67;;;14.63;;
3801;SDS011;1916;51.798;12.246;2023-05-07T01:55:11;19.07;;;13.67;;
3801;SDS011;1916;51.798;12.246;2023-05-07T01:57:14;18.90;;;13.80;;
3801;SDS011;1916;51.798;12.246;2023-05-07T01:59:17;19.40;;;14.17;;
3801;SDS011;1916;51.798;12.246;2023-05-07T02:01:19;19.20;;;14.93;;
3801;SDS011;1916;51.798;12.246;2023-05-07T02:03:22;20.07;;;15.50;;
3801;SDS011;1916;51.798;12.246;2023-05-07T02:05:31;20.20;;;15.27;;
3801;SDS011;1916;51.798;12.246;2023-05-07T02:07:42;21.97;;;15.47;;
3801;SDS011;1916;51.798;12.246;2023-05-07T02:09:45;21.73;;;15.60;;
3801;SDS011;1916;51.798;12.246;2023-05-07T02:11:47;19.37;;;14.53;;
3801;SDS011;1916;51.798;12.246;2023-05-07T02:13:49;23.23;;;15.60;;
3801;SDS011;1916;51.798;12.246;2023-05-07T02:15:51;19.93;;;15.50;;
3801;SDS011;1916;51.798;12.246;2023-05-07T02:20:06;19.20;;;14.27;;
3801;SDS011;1916;51.798;12.246;2023-05-07T02:22:15;19.37;;;15.50;;
3801;SDS011;1916;51.798;12.246;2023-05-07T02:24:17;22.40;;;14.90;;
3801;SDS011;1916;51.798;12.246;2023-05-07T02:26:19;20.33;;;15.90;;
3801;SDS011;1916;51.798;12.246;2023-05-07T02:28:23;21.87;;;15.33;;
3801;SDS011;1916;51.798;12.246;2023-05-07T02:30:31;21.67;;;15.43;;
3801;SDS011;1916;51.798;12.246;2023-05-07T02:32:33;22.67;;;15.97;;
3801;SDS011;1916;51.798;12.246;2023-05-07T02:34:36;24.73;;;15.97;;
3801;SDS011;1916;51.798;12.246;2023-05-07T02:36:38;22.73;;;16.60;;
3801;SDS011;1916;51.798;12.246;2023-05-07T02:38:45;19.53;;;14.93;;
3801;SDS011;1916;51.798;12.246;2023-05-07T02:40:47;22.90;;;15.70;;
3801;SDS011;1916;51.798;12.246;2023-05-07T02:42:50;23.33;;;16.83;;
3801;SDS011;1916;51.798;12.246;2023-05-07T02:44:52;20.80;;;15.63;;
3801;SDS011;1916;51.798;12.246;2023-05-07T02:46:54;24.83;;;17.43;;
3801;SDS011;1916;51.798;12.246;2023-05-07T02:48:56;21.90;;;17.03;;
3801;SDS011;1916;51.798;12.246;2023-05-07T02:50:58;24.07;;;16.73;;
3801;SDS011;1916;51.798;12.246;2023-05-07T02:53:01;25.90;;;16.40;;
3801;SDS011;1916;51.798;12.246;2023-05-07T02:55:03;24.83;;;16.97;;
3801;SDS011;1916;51.798;12.246;2023-05-07T02:57:06;22.10;;;15.77;;
3801;SDS011;1916;51.798;12.246;2023-05-07T02:59:08;18.93;;;15.10;;
3801;SDS011;1916;51.798;12.246;2023-05-07T03:01:13;24.33;;;16.17;;
3801;SDS011;1916;51.798;12.246;2023-05-07T03:03:32;22.50;;;15.77;;
3801;SDS011;1916;51.798;12.246;2023-05-07T03:05:34;24.30;;;16.33;;
3801;SDS011;1916;51.798;12.246;2023-05-07T03:07:36;22.23;;;15.73;;
3801;SDS011;1916;51.798;12.246;2023-05-07T03:09:38;18.60;;;14.80;;
3801;SDS011;1916;51.798;12.246;2023-05-07T03:11:41;18.20;;;14.23;;
3801;SDS011;1916;51.798;12.246;2023-05-07T03:13:43;20.40;;;15.37;;
3801;SDS011;1916;51.798;12.246;2023-05-07T03:15:45;19.90;;;15.10;;
3801;SDS011;1916;51.798;12.246;2023-05-07T03:17:47;19.57;;;14.20;;
3801;SDS011;1916;51.798;12.246;2023-05-07T03:19:50;20.23;;;15.30;;
3801;SDS011;1916;51.798;12.246;2023-05-07T03:21:52;18.67;;;14.23;;
3801;SDS011;1916;51.798;12.246;2023-05-07T03:23:54;20.93;;;14.40;;
3801;SDS011;1916;51.798;12.246;2023-05-07T03:25:57;16.43;;;13.53;;
3801;SDS011;1916;51.798;12.246;2023-05-07T03:27:59;21.60;;;16.23;;
3801;SDS011;1916;51.798;12.246;2023-05-07T03:30:09;20.90;;;13.73;;
3801;SDS011;1916;51.798;12.246;2023-05-07T03:32:13;20.60;;;15.47;;
3801;SDS011;1916;51.798;12.246;2023-05-07T03:34:16;17.37;;;14.00;;
3801;SDS011;1916;51.798;12.246;2023-05-07T03:36:23;17.90;;;14.20;;
3801;SDS011;1916;51.798;12.246;2023-05-07T03:38:29;20.80;;;15.37;;
3801;SDS011;1916;51.798;12.246;2023-05-07T03:40:32;15.83;;;12.80;;
3801;SDS011;1916;51.798;12.246;2023-05-07T03:42:34;17.97;;;14.77;;
3801;SDS011;1916;51.798;12.246;2023-05-07T03:44:36;17.63;;;14.00;;
3801;SDS011;1916;51.798;12.246;2023-05-07T03:46:39;19.70;;;14.47;;
3801;SDS011;1916;51.798;12.246;2023-05-07T03:48:42;18.97;;;14.80;;
3801;SDS011;1916;51.798;12.246;2023-05-07T03:50:46;20.83;;;14.30;;
3801;SDS011;1916;51.798;12.246;2023-05-07T03:52:51;19.63;;;13.47;;
3801;SDS011;1916;51.798;12.246;2023-05-07T03:54:55;21.03;;;12.80;;
3801;SDS011;1916;51.798;12.246;2023-05-07T03:56:58;16.90;;;13.23;;
3801;SDS011;1916;51.798;12.246;2023-05-07T03:59:00;18.43;;;13.53;;
3801;SDS011;1916;51.798;12.246;2023-05-07T04:01:03;15.97;;;12.23;;
3801;SDS011;1916;51.798;12.246;2023-05-07T04:03:05;16.77;;;13.10;;
3801;SDS011;1916;51.798;12.246;2023-05-07T04:05:08;15.07;;;12.30;;
3801;SDS011;1916;51.798;12.246;2023-05-07T04:07:12;15.83;;;12.43;;
3801;SDS011;1916;51.798;12.246;2023-05-07T04:09:18;19.93;;;12.50;;
3801;SDS011;1916;51.798;12.246;2023-05-07T04:11:21;14.60;;;11.77;;
3801;SDS011;1916;51.798;12.246;2023-05-07T04:13:24;15.07;;;11.50;;
3801;SDS011;1916;51.798;12.246;2023-05-07T04:15:26;16.33;;;12.00;;
3801;SDS011;1916;51.798;12.246;2023-05-07T04:17:29;17.60;;;13.83;;
3801;SDS011;1916;51.798;12.246;2023-05-07T04:19:32;15.70;;;12.63;;
3801;SDS011;1916;51.798;12.246;2023-05-07T04:21:36;16.93;;;13.70;;
3801;SDS011;1916;51.798;12.246;2023-05-07T04:23:39;15.47;;;11.57;;
3801;SDS011;1916;51.798;12.246;2023-05-07T04:25:45;15.73;;;12.80;;
3801;SDS011;1916;51.798;12.246;2023-05-07T04:28:07;25.53;;;14.10;;
3801;SDS011;1916;51.798;12.246;2023-05-07T04:30:10;15.33;;;11.87;;
3801;SDS011;1916;51.798;12.246;2023-05-07T04:32:16;15.63;;;12.50;;
3801;SDS011;1916;51.798;12.246;2023-05-07T04:34:18;20.93;;;13.63;;
3801;SDS011;1916;51.798;12.246;2023-05-07T04:36:20;14.70;;;12.20;;
3801;SDS011;1916;51.798;12.246;2023-05-07T04:38:29;16.40;;;11.57;;
3801;SDS011;1916;51.798;12.246;2023-05-07T04:40:35;13.43;;;11.47;;
3801;SDS011;1916;51.798;12.246;2023-05-07T04:42:37;14.30;;;12.43;;
3801;SDS011;1916;51.798;12.246;2023-05-07T04:44:40;16.70;;;13.10;;
3801;SDS011;1916;51.798;12.246;2023-05-07T04:46:42;15.17;;;13.00;;
3801;SDS011;1916;51.798;12.246;2023-05-07T04:48:45;17.17;;;12.43;;
3801;SDS011;1916;51.798;12.246;2023-05-07T04:50:47;16.53;;;12.77;;
3801;SDS011;1916;51.798;12.246;2023-05-07T04:52:51;14.27;;;11.80;;
3801;SDS011;1916;51.798;12.246;2023-05-07T04:54:53;17.00;;;12.93;;
3801;SDS011;1916;51.798;12.246;2023-05-07T04:56:55;16.33;;;11.90;;
3801;SDS011;1916;51.798;12.246;2023-05-07T04:58:58;14.57;;;11.07;;
3801;SDS011;1916;51.798;12.246;2023-05-07T05:01:00;12.77;;;10.63;;
3801;SDS011;1916;51.798;12.246;2023-05-07T05:03:03;13.17;;;10.50;;
3801;SDS011;1916;51.798;12.246;2023-05-07T05:05:07;12.17;;;10.63;;
3801;SDS011;1916;51.798;12.246;2023-05-07T05:07:09;12.23;;;10.30;;
3801;SDS011;1916;51.798;12.246;2023-05-07T05:09:11;14.50;;;10.20;;
3801;SDS011;1916;51.798;12.246;2023-05-07T05:11:15;11.93;;;9.80;;
3801;SDS011;1916;51.798;12.246;2023-05-07T05:13:17;11.10;;;9.53;;
3801;SDS011;1916;51.798;12.246;2023-05-07T05:15:20;9.40;;;8.40;;
3801;SDS011;1916;51.798;12.246;2023-05-07T05:17:22;11.83;;;9.27;;
3801;SDS011;1916;51.798;12.246;2023-05-07T05:19:24;9.93;;;8.77;;
3801;SDS011;1916;51.798;12.246;2023-05-07T05:21:27;8.97;;;8.00;;
3801;SDS011;1916;51.798;12.246;2023-05-07T05:23:34;9.83;;;7.93;;
3801;SDS011;1916;51.798;12.246;2023-05-07T05:25:36;10.80;;;8.63;;
3801;SDS011;1916;51.798;12.246;2023-05-07T05:27:46;9.50;;;8.00;;
3801;SDS011;1916;51.798;12.246;2023-05-07T05:29:49;10.67;;;9.20;;
3801;SDS011;1916;51.798;12.246;2023-05-07T05:31:51;11.10;;;8.70;;
3801;SDS011;1916;51.798;12.246;2023-05-07T05:33:53;9.60;;;8.60;;
3801;SDS011;1916;51.798;12.246;2023-05-07T05:35:55;9.37;;;7.50;;
3801;SDS011;1916;51.798;12.246;2023-05-07T05:37:57;9.63;;;7.03;;
3801;SDS011;1916;51.798;12.246;2023-05-07T05:39:59;8.63;;;7.40;;
3801;SDS011;1916;51.798;12.246;2023-05-07T05:42:04;11.10;;;9.00;;
3801;SDS011;1916;51.798;12.246;2023-05-07T05:44:09;10.10;;;8.80;;
3801;SDS011;1916;51.798;12.246;2023-05-07T05:46:12;7.90;;;7.20;;
3801;SDS011;1916;51.798;12.246;2023-05-07T05:48:14;7.43;;;6.73;;
3801;SDS011;1916;51.798;12.246;2023-05-07T05:50:16;6.60;;;5.90;;
3801;SDS011;1916;51.798;12.246;2023-05-07T05:52:18;9.30;;;5.50;;
3801;SDS011;1916;51.798;12.246;2023-05-07T05:54:21;6.70;;;6.10;;
3801;SDS011;1916;51.798;12.246;2023-05-07T05:56:23;7.77;;;6.37;;
3801;SDS011;1916;51.798;12.246;2023-05-07T05:58:26;7.40;;;6.50;;
3801;SDS011;1916;51.798;12.246;2023-05-07T06:00:33;7.17;;;6.40;;
3801;SDS011;1916;51.798;12.246;2023-05-07T06:02:38;7.70;;;6.90;;
3801;SDS011;1916;51.798;12.246;2023-05-07T06:04:41;12.00;;;6.43;;
3801;SDS011;1916;51.798;12.246;2023-05-07T06:06:46;6.60;;;5.90;;
3801;SDS011;1916;51.798;12.246;2023-05-07T06:08:48;7.00;;;6.30;;
3801;SDS011;1916;51.798;12.246;2023-05-07T06:10:55;6.60;;;6.00;;
3801;SDS011;1916;51.798;12.246;2023-05-07T06:12:57;7.63;;;6.17;;
3801;SDS011;1916;51.798;12.246;2023-05-07T06:15:00;8.50;;;6.90;;
3801;SDS011;1916;51.798;12.246;2023-05-07T06:17:03;5.97;;;5.37;;
3801;SDS011;1916;51.798;12.246;2023-05-07T06:19:05;6.97;;;5.47;;
3801;SDS011;1916;51.798;12.246;2023-05-07T06:21:09;7.80;;;6.20;;
3801;SDS011;1916;51.798;12.246;2023-05-07T06:23:12;6.80;;;6.17;;
3801;SDS011;1916;51.798;12.246;2023-05-07T06:25:18;7.73;;;6.17;;
3801;SDS011;1916;51.798;12.246;2023-05-07T06:27:20;6.70;;;5.90;;
3801;SDS011;1916;51.798;12.246;2023-05-07T06:29:23;6.17;;;5.57;;
3801;SDS011;1916;51.798;12.246;2023-05-07T06:31:28;7.00;;;6.30;;
3801;SDS011;1916;51.798;12.246;2023-05-07T06:33:38;8.20;;;7.00;;
3801;SDS011;1916;51.798;12.246;2023-05-07T06:35:40;7.00;;;6.30;;
3801;SDS011;1916;51.798;12.246;2023-05-07T06:37:42;9.13;;;6.50;;
3801;SDS011;1916;51.798;12.246;2023-05-07T06:39:50;7.07;;;6.13;;
3801;SDS011;1916;51.798;12.246;2023-05-07T06:41:52;7.00;;;6.10;;
3801;SDS011;1916;51.798;12.246;2023-05-07T06:44:02;8.67;;;6.93;;
3801;SDS011;1916;51.798;12.246;2023-05-07T06:46:27;5.80;;;5.20;;
3801;SDS011;1916;51.798;12.246;2023-05-07T06:48:30;6.40;;;5.80;;
3801;SDS011;1916;51.798;12.246;2023-05-07T06:50:36;6.40;;;5.80;;
3801;SDS011;1916;51.798;12.246;2023-05-07T06:52:38;5.67;;;5.17;;
3801;SDS011;1916;51.798;12.246;2023-05-07T06:54:41;5.90;;;5.30;;
3801;SDS011;1916;51.798;12.246;2023-05-07T06:56:43;6.20;;;5.60;;
3801;SDS011;1916;51.798;12.246;2023-05-07T06:58:45;6.40;;;5.80;;
3801;SDS011;1916;51.798;12.246;2023-05-07T07:00:47;5.57;;;5.07;;
3801;SDS011;1916;51.798;12.246;2023-05-07T07:02:50;5.17;;;4.67;;
3801;SDS011;1916;51.798;12.246;2023-05-07T07:04:55;5.97;;;5.37;;
3801;SDS011;1916;51.798;12.246;2023-05-07T07:06:57;6.13;;;5.53;;
3801;SDS011;1916;51.798;12.246;2023-05-07T07:08:59;5.90;;;5.33;;
3801;SDS011;1916;51.798;12.246;2023-05-07T07:11:03;5.17;;;4.67;;
3801;SDS011;1916;51.798;12.246;2023-05-07T07:13:06;5.73;;;4.60;;
3801;SDS011;1916;51.798;12.246;2023-05-07T07:15:08;4.67;;;4.10;;
3801;SDS011;1916;51.798;12.246;2023-05-07T07:17:10;5.13;;;4.33;;
3801;SDS011;1916;51.798;12.246;2023-05-07T07:19:12;5.20;;;4.70;;
3801;SDS011;1916;51.798;12.246;2023-05-07T07:21:17;6.30;;;4.70;;
3801;SDS011;1916;51.798;12.246;2023-05-07T07:23:19;4.90;;;4.40;;
3801;SDS011;1916;51.798;12.246;2023-05-07T07:25:21;5.97;;;5.47;;
3801;SDS011;1916;51.798;12.246;2023-05-07T07:27:24;5.90;;;5.30;;
3801;SDS011;1916;51.798;12.246;2023-05-07T07:29:26;5.40;;;4.70;;
3801;SDS011;1916;51.798;12.246;2023-05-07T07:31:29;5.40;;;4.90;;
3801;SDS011;1916;51.798;12.246;2023-05-07T07:33:32;4.57;;;4.13;;
3801;SDS011;1916;51.798;12.246;2023-05-07T07:35:35;5.70;;;5.20;;
3801;SDS011;1916;51.798;12.246;2023-05-07T07:37:39;4.97;;;4.47;;
3801;SDS011;1916;51.798;12.246;2023-05-07T07:39:41;6.93;;;5.20;;
3801;SDS011;1916;51.798;12.246;2023-05-07T07:41:45;6.03;;;5.43;;
3801;SDS011;1916;51.798;12.246;2023-05-07T07:43:48;6.40;;;5.30;;
3801;SDS011;1916;51.798;12.246;2023-05-07T07:45:53;6.60;;;5.53;;
3801;SDS011;1916;51.798;12.246;2023-05-07T07:47:55;6.97;;;5.50;;
3801;SDS011;1916;51.798;12.246;2023-05-07T07:49:58;9.13;;;5.80;;
3801;SDS011;1916;51.798;12.246;2023-05-07T07:52:00;8.30;;;6.27;;
3801;SDS011;1916;51.798;12.246;2023-05-07T07:54:04;8.50;;;6.50;;
3801;SDS011;1916;51.798;12.246;2023-05-07T07:56:08;8.30;;;6.20;;
3801;SDS011;1916;51.798;12.246;2023-05-07T07:58:10;8.60;;;6.47;;
3801;SDS011;1916;51.798;12.246;2023-05-07T08:00:12;8.77;;;6.90;;
3801;SDS011;1916;51.798;12.246;2023-05-07T08:02:17;14.27;;;6.60;;
3801;SDS011;1916;51.798;12.246;2023-05-07T08:04:21;8.57;;;7.17;;
3801;SDS011;1916;51.798;12.246;2023-05-07T08:06:23;7.33;;;6.63;;
3801;SDS011;1916;51.798;12.246;2023-05-07T08:08:27;11.07;;;6.83;;
3801;SDS011;1916;51.798;12.246;2023-05-07T08:10:30;10.73;;;7.50;;
3801;SDS011;1916;51.798;12.246;2023-05-07T08:12:41;8.77;;;6.77;;
3801;SDS011;1916;51.798;12.246;2023-05-07T08:14:44;9.50;;;6.80;;
3801;SDS011;1916;51.798;12.246;2023-05-07T08:16:46;7.30;;;6.10;;
3801;SDS011;1916;51.798;12.246;2023-05-07T08:18:48;10.27;;;6.87;;
3801;SDS011;1916;51.798;12.246;2023-05-07T08:20:50;10.40;;;7.40;;
3801;SDS011;1916;51.798;12.246;2023-05-07T08:22:56;11.80;;;6.97;;
3801;SDS011;1916;51.798;12.246;2023-05-07T08:25:00;10.53;;;8.60;;
3801;SDS011;1916;51.798;12.246;2023-05-07T08:27:03;18.70;;;9.17;;
3801;SDS011;1916;51.798;12.246;2023-05-07T08:29:05;11.17;;;8.17;;
3801;SDS011;1916;51.798;12.246;2023-05-07T08:31:08;14.57;;;12.00;;
3801;SDS011;1916;51.798;12.246;2023-05-07T08:33:13;19.50;;;12.70;;
3801;SDS011;1916;51.798;12.246;2023-05-07T08:35:15;17.50;;;12.57;;
3801;SDS011;1916;51.798;12.246;2023-05-07T08:37:18;16.03;;;11.93;;
3801;SDS011;1916;51.798;12.246;2023-05-07T08:39:20;11.20;;;10.03;;
3801;SDS011;1916;51.798;12.246;2023-05-07T08:41:25;9.87;;;8.90;;
3801;SDS011;1916;51.798;12.246;2023-05-07T08:43:27;15.33;;;9.27;;
3801;SDS011;1916;51.798;12.246;2023-05-07T08:45:30;10.73;;;9.37;;
3801;SDS011;1916;51.798;12.246;2023-05-07T08:47:34;11.87;;;10.20;;
3801;SDS011;1916;51.798;12.246;2023-05-07T08:49:42;11.80;;;8.73;;
3801;SDS011;1916;51.798;12.246;2023-05-07T08:51:44;11.20;;;8.67;;
3801;SDS011;1916;51.798;12.246;2023-05-07T08:53:48;11.60;;;8.93;;
3801;SDS011;1916;51.798;12.246;2023-05-07T08:55:57;12.10;;;8.47;;
3801;SDS011;1916;51.798;12.246;2023-05-07T08:58:00;11.83;;;9.17;;
3801;SDS011;1916;51.798;12.246;2023-05-07T09:00:05;14.27;;;8.63;;
3801;SDS011;1916;51.798;12.246;2023-05-07T09:02:11;11.57;;;8.50;;
3801;SDS011;1916;51.798;12.246;2023-05-07T09:04:14;10.33;;;8.60;;
3801;SDS011;1916;51.798;12.246;2023-05-07T09:06:18;10.17;;;8.13;;
3801;SDS011;1916;51.798;12.246;2023-05-07T09:08:24;9.57;;;8.40;;
3801;SDS011;1916;51.798;12.246;2023-05-07T09:10:29;9.47;;;7.70;;
3801;SDS011;1916;51.798;12.246;2023-05-07T09:12:31;10.30;;;8.20;;
3801;SDS011;1916;51.798;12.246;2023-05-07T09:14:34;14.60;;;7.93;;
3801;SDS011;1916;51.798;12.246;2023-05-07T09:16:41;11.60;;;8.40;;
3801;SDS011;1916;51.798;12.246;2023-05-07T09:18:44;8.53;;;7.67;;
3801;SDS011;1916;51.798;12.246;2023-05-07T09:20:48;15.77;;;7.80;;
3801;SDS011;1916;51.798;12.246;2023-05-07T09:22:55;18.40;;;6.97;;
3801;SDS011;1916;51.798;12.246;2023-05-07T09:24:59;9.00;;;7.47;;
3801;SDS011;1916;51.798;12.246;2023-05-07T09:27:02;9.10;;;7.70;;
3801;SDS011;1916;51.798;12.246;2023-05-07T09:29:31;11.20;;;8.27;;
3801;SDS011;1916;51.798;12.246;2023-05-07T09:31:40;9.43;;;7.97;;
3801;SDS011;1916;51.798;12.246;2023-05-07T09:33:46;11.23;;;8.50;;
3801;SDS011;1916;51.798;12.246;2023-05-07T09:35:50;10.70;;;9.20;;
3801;SDS011;1916;51.798;12.246;2023-05-07T09:37:57;10.30;;;8.27;;
3801;SDS011;1916;51.798;12.246;2023-05-07T09:40:06;10.13;;;8.17;;
3801;SDS011;1916;51.798;12.246;2023-05-07T09:42:11;12.63;;;9.00;;
3801;SDS011;1916;51.798;12.246;2023-05-07T09:44:14;10.70;;;8.73;;
3801;SDS011;1916;51.798;12.246;2023-05-07T09:46:23;11.30;;;9.20;;
3801;SDS011;1916;51.798;12.246;2023-05-07T09:48:27;11.43;;;8.97;;
3801;SDS011;1916;51.798;12.246;2023-05-07T09:50:36;9.03;;;7.90;;
3801;SDS011;1916;51.798;12.246;2023-05-07T09:52:39;9.77;;;7.70;;
3801;SDS011;1916;51.798;12.246;2023-05-07T09:54:44;8.67;;;7.57;;
3801;SDS011;1916;51.798;12.246;2023-05-07T09:56:49;10.40;;;7.87;;
3801;SDS011;1916;51.798;12.246;2023-05-07T09:58:59;7.43;;;6.73;;
3801;SDS011;1916;51.798;12.246;2023-05-07T10:01:05;8.87;;;6.83;;
3801;SDS011;1916;51.798;12.246;2023-05-07T10:03:08;10.00;;;7.13;;
3801;SDS011;1916;51.798;12.246;2023-05-07T10:05:19;11.63;;;7.20;;
3801;SDS011;1916;51.798;12.246;2023-05-07T10:07:23;9.70;;;6.90;;
3801;SDS011;1916;51.798;12.246;2023-05-07T10:09:30;8.77;;;6.60;;
3801;SDS011;1916;51.798;12.246;2023-05-07T10:11:33;7.90;;;7.10;;
3801;SDS011;1916;51.798;12.246;2023-05-07T10:13:37;7.90;;;7.00;;
3801;SDS011;1916;51.798;12.246;2023-05-07T10:15:43;9.53;;;6.80;;
3801;SDS011;1916;51.798;12.246;2023-05-07T10:17:45;7.80;;;6.93;;
3801;SDS011;1916;51.798;12.246;2023-05-07T10:19:49;9.60;;;6.53;;
3801;SDS011;1916;51.798;12.246;2023-05-07T10:21:56;8.60;;;6.90;;
3801;SDS011;1916;51.798;12.246;2023-05-07T10:24:16;9.27;;;7.23;;
3801;SDS011;1916;51.798;12.246;2023-05-07T10:26:21;7.50;;;6.23;;
3801;SDS011;1916;51.798;12.246;2023-05-07T10:28:24;8.00;;;6.87;;
3801;SDS011;1916;51.798;12.246;2023-05-07T10:30:39;9.07;;;7.40;;
3801;SDS011;1916;51.798;12.246;2023-05-07T10:32:50;12.43;;;7.87;;
3801;SDS011;1916;51.798;12.246;2023-05-07T10:35:03;11.93;;;8.20;;
3801;SDS011;1916;51.798;12.246;2023-05-07T10:37:08;9.27;;;8.10;;
3801;SDS011;1916;51.798;12.246;2023-05-07T10:39:11;9.33;;;7.80;;
3801;SDS011;1916;51.798;12.246;2023-05-07T10:41:14;10.17;;;9.07;;
3801;SDS011;1916;51.798;12.246;2023-05-07T10:43:19;10.47;;;9.00;;
3801;SDS011;1916;51.798;12.246;2023-05-07T10:45:27;11.27;;;9.70;;
3801;SDS011;1916;51.798;12.246;2023-05-07T10:47:32;11.47;;;10.27;;
3801;SDS011;1916;51.798;12.246;2023-05-07T10:49:37;9.97;;;8.67;;
3801;SDS011;1916;51.798;12.246;2023-05-07T10:51:42;11.60;;;8.50;;
3801;SDS011;1916;51.798;12.246;2023-05-07T10:58:33;16.97;;;8.63;;
3801;SDS011;1916;51.798;12.246;2023-05-07T11:00:48;11.40;;;8.90;;
3801;SDS011;1916;51.798;12.246;2023-05-07T11:05:22;10.00;;;8.87;;
3801;SDS011;1916;51.798;12.246;2023-05-07T11:07:43;11.47;;;7.97;;
3801;SDS011;1916;51.798;12.246;2023-05-07T11:10:00;16.90;;;8.73;;
3801;SDS011;1916;51.798;12.246;2023-05-07T11:14:46;10.53;;;8.50;;
3801;SDS011;1916;51.798;12.246;2023-05-07T11:17:03;10.07;;;9.07;;
3801;SDS011;1916;51.798;12.246;2023-05-07T11:19:07;8.97;;;8.07;;
3801;SDS011;1916;51.798;12.246;2023-05-07T11:21:36;10.67;;;7.80;;
3801;SDS011;1916;51.798;12.246;2023-05-07T11:23:55;8.47;;;7.60;;
3801;SDS011;1916;51.798;12.246;2023-05-07T11:26:07;8.80;;;7.43;;
3801;SDS011;1916;51.798;12.246;2023-05-07T11:28:12;8.43;;;7.53;;
3801;SDS011;1916;51.798;12.246;2023-05-07T11:30:24;10.13;;;7.93;;
3801;SDS011;1916;51.798;12.246;2023-05-07T11:32:31;10.23;;;7.70;;
3801;SDS011;1916;51.798;12.246;2023-05-07T11:34:34;8.30;;;7.23;;
3801;SDS011;1916;51.798;12.246;2023-05-07T11:36:40;8.33;;;7.50;;
3801;SDS011;1916;51.798;12.246;2023-05-07T11:38:48;9.40;;;6.47;;
3801;SDS011;1916;51.798;12.246;2023-05-07T11:40:50;7.87;;;7.13;;
3801;SDS011;1916;51.798;12.246;2023-05-07T11:42:53;7.73;;;6.70;;
3801;SDS011;1916;51.798;12.246;2023-05-07T11:44:55;8.57;;;6.67;;
3801;SDS011;1916;51.798;12.246;2023-05-07T11:46:58;10.30;;;7.70;;
3801;SDS011;1916;51.798;12.246;2023-05-07T11:49:02;6.90;;;6.20;;
3801;SDS011;1916;51.798;12.246;2023-05-07T11:51:05;8.00;;;6.37;;
3801;SDS011;1916;51.798;12.246;2023-05-07T11:53:08;7.73;;;6.03;;
3801;SDS011;1916;51.798;12.246;2023-05-07T11:55:10;8.70;;;6.13;;
3801;SDS011;1916;51.798;12.246;2023-05-07T11:57:15;7.67;;;6.20;;
3801;SDS011;1916;51.798;12.246;2023-05-07T11:59:18;10.03;;;5.80;;
3801;SDS011;1916;51.798;12.246;2023-05-07T12:01:20;6.97;;;6.07;;
3801;SDS011;1916;51.798;12.246;2023-05-07T12:03:23;8.63;;;5.90;;
3801;SDS011;1916;51.798;12.246;2023-05-07T12:05:25;8.43;;;6.70;;
3801;SDS011;1916;51.798;12.246;2023-05-07T12:07:27;8.10;;;6.50;;
3801;SDS011;1916;51.798;12.246;2023-05-07T12:09:32;8.10;;;7.00;;
3801;SDS011;1916;51.798;12.246;2023-05-07T12:11:34;9.57;;;6.47;;
3801;SDS011;1916;51.798;12.246;2023-05-07T12:13:36;9.40;;;7.57;;
3801;SDS011;1916;51.798;12.246;2023-05-07T12:15:39;8.70;;;7.03;;
3801;SDS011;1916;51.798;12.246;2023-05-07T12:17:41;8.30;;;6.00;;
3801;SDS011;1916;51.798;12.246;2023-05-07T12:19:44;7.80;;;6.20;;
3801;SDS011;1916;51.798;12.246;2023-05-07T12:21:46;9.47;;;6.90;;
3801;SDS011;1916;51.798;12.246;2023-05-07T12:23:49;7.70;;;6.23;;
3801;SDS011;1916;51.798;12.246;2023-05-07T12:25:51;7.97;;;6.83;;
3801;SDS011;1916;51.798;12.246;2023-05-07T12:27:53;10.97;;;6.63;;
3801;SDS011;1916;51.798;12.246;2023-05-07T12:29:57;7.43;;;6.60;;
3801;SDS011;1916;51.798;12.246;2023-05-07T12:32:00;7.70;;;6.50;;
3801;SDS011;1916;51.798;12.246;2023-05-07T12:34:04;10.50;;;6.17;;
3801;SDS011;1916;51.798;12.246;2023-05-07T12:36:06;9.53;;;7.70;;
3801;SDS011;1916;51.798;12.246;2023-05-07T12:38:11;9.87;;;7.60;;
3801;SDS011;1916;51.798;12.246;2023-05-07T12:40:14;9.10;;;7.33;;
3801;SDS011;1916;51.798;12.246;2023-05-07T12:42:19;9.50;;;7.30;;